< < Back
Terminal Aerodrome Forecast


Current Version              Previous Versions:   1  2  3  4  5  6  7  8  9  

Terminal Aerodrome Forecast

750
FTUS42 KMLB 272300
TAFDAB
TAF
KDAB 272320Z 2800/2824 33009KT P6SM SKC
     FM281400 36010KT P6SM SKC
     FM281800 02012KT P6SM FEW035=

Latest METAR

911
SAUS80 KWBC 280900 RRB
MTRDAB
METAR KDAB 280853Z 33009KT 10SM CLR 07/01 A3029 RMK AO2 SLP256 T00720011
53002


USA.gov is the U.S. government's official web portal to all federal, state and local government web resources and services.